Time;durP1;ratioP1;P1;durP2;ratioP2;P2;SDS_P1;SDS_P2;PMS_P1;PMS_P2;Temp;Humidity;BMP_temperature;BMP_pressure;BME280_temperature;BME280_humidity;BME280_pressure;Samples;Min_cycle;Max_cycle;Signal;HPM_P1;HPM_P2
2022/03/02 00:00:23;;;;;;;11.00;7.07;;;;;;;;;;5033669;28;20234;-91
2022/03/02 00:02:52;;;;;;;10.23;6.17;;;;;;;;;;5048650;28;20238;-90
2022/03/02 00:05:20;;;;;;;10.67;6.40;;;;;;;;;;5051507;28;20198;-91
2022/03/02 00:07:47;;;;;;;12.07;6.73;;;;;;;;;;5048845;28;20230;-91
2022/03/02 00:10:14;;;;;;;8.73;6.10;;;;;;;;;;5033270;28;20207;-90
2022/03/02 00:12:42;;;;;;;9.07;5.87;;;;;;;;;;5047937;28;20229;-90
2022/03/02 00:15:09;;;;;;;8.03;5.83;;;;;;;;;;5051645;28;20206;-89
2022/03/02 00:17:36;;;;;;;11.13;6.90;;;;;;;;;;5045610;28;20692;-89
2022/03/02 00:20:06;;;;;;;8.97;5.83;;;;;;;;;;5041766;28;20578;-89
2022/03/02 00:22:33;;;;;;;7.57;5.13;;;;;;;;;;5041999;28;20214;-91
2022/03/02 00:25:09;;;;;;;8.20;5.47;;;;;;;;;;5051079;28;20663;-91
2022/03/02 00:27:37;;;;;;;8.53;5.67;;;;;;;;;;5043135;28;20234;-91
2022/03/02 00:30:05;;;;;;;8.47;5.27;;;;;;;;;;5043067;28;20206;-90
2022/03/02 00:32:32;;;;;;;8.57;6.07;;;;;;;;;;5041004;28;20643;-90
2022/03/02 00:34:59;;;;;;;7.90;5.33;;;;;;;;;;5054474;28;20214;-91
2022/03/02 00:37:28;;;;;;;8.67;6.30;;;;;;;;;;5045266;28;20222;-91
2022/03/02 00:39:55;;;;;;;12.23;6.90;;;;;;;;;;5045289;28;20255;-91
2022/03/02 00:42:23;;;;;;;9.00;6.17;;;;;;;;;;5054566;28;20276;-91
2022/03/02 00:44:50;;;;;;;9.07;6.67;;;;;;;;;;5054613;28;20210;-91
2022/03/02 00:47:18;;;;;;;7.50;5.00;;;;;;;;;;5051986;28;20222;-92
2022/03/02 00:49:45;;;;;;;9.97;5.33;;;;;;;;;;5046177;28;20816;-91
2022/03/02 00:52:14;;;;;;;9.50;6.27;;;;;;;;;;5054143;28;20210;-92
2022/03/02 00:54:42;;;;;;;8.30;6.13;;;;;;;;;;5051572;28;20214;-90
2022/03/02 00:57:10;;;;;;;8.57;5.80;;;;;;;;;;5038255;28;20206;-90
2022/03/02 00:59:37;;;;;;;8.90;5.87;;;;;;;;;;5034685;28;20252;-89
2022/03/02 01:02:05;;;;;;;7.70;5.37;;;;;;;;;;5036852;28;20721;-91
2022/03/02 01:04:32;;;;;;;11.03;6.00;;;;;;;;;;5046705;28;20252;-90
2022/03/02 01:06:59;;;;;;;7.93;4.70;;;;;;;;;;5053962;28;20271;-90
2022/03/02 01:09:27;;;;;;;9.03;5.27;;;;;;;;;;5054660;28;20284;-90
2022/03/02 01:11:56;;;;;;;10.13;6.10;;;;;;;;;;5049772;28;20210;-90
2022/03/02 01:14:23;;;;;;;9.07;5.53;;;;;;;;;;5034703;28;20214;-90
2022/03/02 01:16:51;;;;;;;7.77;4.63;;;;;;;;;;5034641;28;20373;-90
2022/03/02 01:19:18;;;;;;;8.40;5.23;;;;;;;;;;5037116;28;20222;-90
2022/03/02 01:21:45;;;;;;;10.07;5.40;;;;;;;;;;5034587;28;20211;-90
2022/03/02 01:24:13;;;;;;;11.60;6.07;;;;;;;;;;5040786;28;20214;-90
2022/03/02 01:26:40;;;;;;;7.27;4.73;;;;;;;;;;5034369;28;20721;-90
2022/03/02 01:29:09;;;;;;;7.40;4.73;;;;;;;;;;5045348;28;20222;-90
2022/03/02 01:31:36;;;;;;;8.20;5.13;;;;;;;;;;5045033;28;20226;-90
2022/03/02 01:34:03;;;;;;;14.37;5.53;;;;;;;;;;5053196;28;20235;-90
2022/03/02 01:36:31;;;;;;;9.23;6.03;;;;;;;;;;5047065;28;20207;-90
2022/03/02 01:38:58;;;;;;;8.73;6.17;;;;;;;;;;5049782;28;20238;-90
2022/03/02 01:41:26;;;;;;;9.33;6.27;;;;;;;;;;5033638;28;20226;-90
2022/03/02 01:43:54;;;;;;;10.63;5.63;;;;;;;;;;5043465;28;20268;-90
2022/03/02 01:46:23;;;;;;;10.40;5.77;;;;;;;;;;5049145;28;20210;-89
2022/03/02 01:48:51;;;;;;;12.43;6.03;;;;;;;;;;5044903;28;20287;-90
2022/03/02 01:51:18;;;;;;;9.93;5.73;;;;;;;;;;5054084;28;20283;-90
2022/03/02 01:53:46;;;;;;;10.07;5.97;;;;;;;;;;5047454;28;20255;-91
2022/03/02 01:56:13;;;;;;;9.53;5.17;;;;;;;;;;5041840;28;20203;-89
2022/03/02 01:58:40;;;;;;;9.23;5.93;;;;;;;;;;5034286;28;20753;-90
2022/03/02 02:01:08;;;;;;;8.90;5.47;;;;;;;;;;5034807;28;20264;-90
2022/03/02 02:03:37;;;;;;;8.67;5.43;;;;;;;;;;5063848;28;20764;-90
2022/03/02 02:06:04;;;;;;;8.30;5.17;;;;;;;;;;5045900;28;20210;-91
2022/03/02 02:08:32;;;;;;;7.37;4.87;;;;;;;;;;5053207;28;20226;-90
2022/03/02 02:11:00;;;;;;;9.83;5.10;;;;;;;;;;5048534;28;20206;-91
2022/03/02 02:13:30;;;;;;;8.20;4.93;;;;;;;;;;5041550;28;20235;-90
2022/03/02 02:15:57;;;;;;;11.87;6.83;;;;;;;;;;5033819;28;20229;-90
2022/03/02 02:18:25;;;;;;;9.83;6.50;;;;;;;;;;5038893;28;20230;-90
2022/03/02 02:20:54;;;;;;;10.13;6.40;;;;;;;;;;5043669;28;20261;-90
2022/03/02 02:23:21;;;;;;;8.37;5.80;;;;;;;;;;5052542;28;20252;-90
2022/03/02 02:25:48;;;;;;;8.97;5.77;;;;;;;;;;5046744;28;20202;-90
2022/03/02 02:28:19;;;;;;;9.73;5.80;;;;;;;;;;5048192;28;20298;-90
2022/03/02 02:30:46;;;;;;;9.00;5.33;;;;;;;;;;5053099;28;20271;-90
2022/03/02 02:33:14;;;;;;;10.87;5.80;;;;;;;;;;5053073;28;20275;-91
2022/03/02 02:35:41;;;;;;;15.37;8.20;;;;;;;;;;5044642;28;20256;-90
2022/03/02 02:38:11;;;;;;;7.30;5.70;;;;;;;;;;5032631;28;20218;-90
2022/03/02 02:40:38;;;;;;;9.70;6.33;;;;;;;;;;5033177;28;20206;-90
2022/03/02 02:43:07;;;;;;;13.17;7.20;;;;;;;;;;5040942;28;20206;-90
2022/03/02 02:45:34;;;;;;;9.93;5.57;;;;;;;;;;5049281;28;20556;-90
2022/03/02 02:48:01;;;;;;;10.07;5.50;;;;;;;;;;5052673;28;20280;-91
2022/03/02 02:50:29;;;;;;;8.63;6.03;;;;;;;;;;5047599;28;20718;-90
2022/03/02 02:52:57;;;;;;;7.47;4.83;;;;;;;;;;5047777;28;20207;-90
2022/03/02 02:55:27;;;;;;;9.70;6.20;;;;;;;;;;5033001;28;20617;-90
2022/03/02 02:57:54;;;;;;;11.20;5.90;;;;;;;;;;5034206;28;20235;-90
2022/03/02 03:00:23;;;;;;;10.10;5.67;;;;;;;;;;5035331;28;20260;-90
2022/03/02 03:02:51;;;;;;;10.40;5.77;;;;;;;;;;5050288;28;20499;-90
2022/03/02 03:05:19;;;;;;;13.87;5.60;;;;;;;;;;5050128;28;20552;-91
2022/03/02 03:07:47;;;;;;;10.00;5.63;;;;;;;;;;5041224;28;20230;-90
2022/03/02 03:10:15;;;;;;;12.47;6.57;;;;;;;;;;5044145;28;20237;-90
2022/03/02 03:12:46;;;;;;;10.40;6.77;;;;;;;;;;5052602;28;20233;-90
2022/03/02 03:15:15;;;;;;;10.73;5.60;;;;;;;;;;5050720;28;20208;-90
2022/03/02 03:17:42;;;;;;;7.73;5.60;;;;;;;;;;5040376;28;20279;-90
2022/03/02 03:20:11;;;;;;;12.03;6.33;;;;;;;;;;5037519;28;20198;-90
2022/03/02 03:22:38;;;;;;;13.13;7.17;;;;;;;;;;5052571;28;20206;-90
2022/03/02 03:25:07;;;;;;;6.90;5.60;;;;;;;;;;5038499;28;20202;-90
2022/03/02 03:27:34;;;;;;;8.87;5.50;;;;;;;;;;5032835;28;20226;-90
2022/03/02 03:30:03;;;;;;;9.97;6.23;;;;;;;;;;5032780;28;20226;-90
2022/03/02 03:32:31;;;;;;;11.37;5.90;;;;;;;;;;5035630;28;20651;-91
2022/03/02 03:34:59;;;;;;;9.27;5.70;;;;;;;;;;5041123;28;20209;-90
2022/03/02 03:37:26;;;;;;;8.67;5.73;;;;;;;;;;5043861;28;20285;-90
2022/03/02 03:39:54;;;;;;;9.37;5.83;;;;;;;;;;5045500;28;20252;-90
2022/03/02 03:42:23;;;;;;;8.40;5.03;;;;;;;;;;5039852;28;20206;-91
2022/03/02 03:44:50;;;;;;;9.23;5.90;;;;;;;;;;5043987;28;20201;-91
2022/03/02 03:47:19;;;;;;;5.60;4.20;;;;;;;;;;5051112;28;20237;-90
2022/03/02 03:49:46;;;;;;;7.83;5.07;;;;;;;;;;5040654;28;20281;-91
2022/03/02 03:52:16;;;;;;;7.93;4.70;;;;;;;;;;5038116;28;20195;-92
2022/03/02 03:54:44;;;;;;;6.17;4.37;;;;;;;;;;5044167;28;20217;-91
2022/03/02 03:57:11;;;;;;;9.60;5.13;;;;;;;;;;5040268;28;20226;-90
2022/03/02 03:59:38;;;;;;;6.70;4.80;;;;;;;;;;5032550;28;20260;-91
2022/03/02 04:02:06;;;;;;;5.70;4.97;;;;;;;;;;5032464;28;20245;-91
2022/03/02 04:04:34;;;;;;;7.23;4.50;;;;;;;;;;5048523;28;20213;-91
2022/03/02 04:07:02;;;;;;;7.33;4.70;;;;;;;;;;5039535;28;20202;-91
2022/03/02 04:09:29;;;;;;;11.80;4.90;;;;;;;;;;5054694;28;20620;-91
2022/03/02 04:11:57;;;;;;;7.80;4.90;;;;;;;;;;5050527;28;20255;-91
2022/03/02 04:14:24;;;;;;;9.57;4.83;;;;;;;;;;5048998;28;20213;-90
2022/03/02 04:16:52;;;;;;;7.93;5.23;;;;;;;;;;5036336;28;20210;-91
2022/03/02 04:19:19;;;;;;;8.57;5.30;;;;;;;;;;5036588;28;20230;-91
2022/03/02 04:21:48;;;;;;;9.53;4.67;;;;;;;;;;5047854;28;20213;-90
2022/03/02 04:24:15;;;;;;;5.93;4.20;;;;;;;;;;5041478;28;20710;-90
2022/03/02 04:26:43;;;;;;;6.57;5.00;;;;;;;;;;5036300;28;20211;-91
2022/03/02 04:29:10;;;;;;;6.43;4.20;;;;;;;;;;5042811;28;20223;-91
2022/03/02 04:31:37;;;;;;;15.73;5.53;;;;;;;;;;5043806;28;20206;-90
2022/03/02 04:34:05;;;;;;;6.13;4.70;;;;;;;;;;5055413;28;20206;-90
2022/03/02 04:36:32;;;;;;;7.23;5.30;;;;;;;;;;5042807;28;20609;-90
2022/03/02 04:39:01;;;;;;;6.77;4.63;;;;;;;;;;5051118;28;20740;-90
2022/03/02 04:41:28;;;;;;;8.97;5.23;;;;;;;;;;5055724;28;20260;-91
2022/03/02 04:43:56;;;;;;;6.97;4.83;;;;;;;;;;5051281;28;20215;-91
2022/03/02 04:46:23;;;;;;;6.43;4.37;;;;;;;;;;5053542;28;20208;-90
2022/03/02 04:48:50;;;;;;;6.60;4.67;;;;;;;;;;5044435;28;20284;-91
2022/03/02 04:51:18;;;;;;;7.20;4.63;;;;;;;;;;5054642;28;20210;-91
2022/03/02 04:53:45;;;;;;;7.07;5.37;;;;;;;;;;5046015;28;20224;-91
2022/03/02 04:56:13;;;;;;;7.73;5.70;;;;;;;;;;5055640;28;20245;-91
2022/03/02 04:58:41;;;;;;;10.13;5.77;;;;;;;;;;5058474;28;20218;-91
2022/03/02 05:01:08;;;;;;;7.87;5.80;;;;;;;;;;5055528;28;20271;-91
2022/03/02 05:03:35;;;;;;;8.93;5.30;;;;;;;;;;5044815;28;20551;-92
2022/03/02 05:06:03;;;;;;;7.47;5.40;;;;;;;;;;5054898;28;20655;-91
2022/03/02 05:08:30;;;;;;;7.73;5.80;;;;;;;;;;5039733;28;20627;-91
2022/03/02 05:10:57;;;;;;;9.53;5.30;;;;;;;;;;5035842;28;20305;-91
2022/03/02 05:13:26;;;;;;;8.17;6.00;;;;;;;;;;5046268;28;20214;-91
2022/03/02 05:15:53;;;;;;;9.03;5.27;;;;;;;;;;5051054;28;20206;-91
2022/03/02 05:18:21;;;;;;;8.70;5.43;;;;;;;;;;5035115;28;20227;-91
2022/03/02 05:20:48;;;;;;;8.50;5.67;;;;;;;;;;5034859;28;20206;-91
2022/03/02 05:23:15;;;;;;;7.50;5.03;;;;;;;;;;5046797;28;20636;-91
2022/03/02 05:25:43;;;;;;;10.03;5.47;;;;;;;;;;5035958;28;20210;-91
2022/03/02 05:28:10;;;;;;;7.47;4.83;;;;;;;;;;5055356;28;20234;-91
2022/03/02 05:30:39;;;;;;;6.90;5.33;;;;;;;;;;5050377;28;20292;-91
2022/03/02 05:33:06;;;;;;;9.50;5.67;;;;;;;;;;5046760;28;20206;-91
2022/03/02 05:35:34;;;;;;;9.87;5.10;;;;;;;;;;5035409;28;20210;-91
2022/03/02 05:38:01;;;;;;;7.37;4.80;;;;;;;;;;5037928;28;20224;-91
2022/03/02 05:40:28;;;;;;;6.37;4.53;;;;;;;;;;5050070;28;20222;-91
2022/03/02 05:42:57;;;;;;;8.60;4.80;;;;;;;;;;5054419;28;20205;-91
2022/03/02 05:45:27;;;;;;;7.83;4.43;;;;;;;;;;5054930;28;20266;-91
2022/03/02 05:47:56;;;;;;;7.90;4.63;;;;;;;;;;5049158;28;20694;-91
2022/03/02 05:50:24;;;;;;;9.67;5.40;;;;;;;;;;5048501;28;20226;-92
2022/03/02 05:52:51;;;;;;;13.20;5.47;;;;;;;;;;5050363;28;20647;-91
2022/03/02 05:55:18;;;;;;;7.23;4.97;;;;;;;;;;5046412;28;20724;-91
2022/03/02 05:57:45;;;;;;;7.93;5.17;;;;;;;;;;5039151;28;20376;-91
2022/03/02 06:00:13;;;;;;;10.03;5.13;;;;;;;;;;5048677;28;20213;-91
2022/03/02 06:02:41;;;;;;;9.30;5.77;;;;;;;;;;5048619;28;20202;-91
2022/03/02 06:05:10;;;;;;;16.03;6.37;;;;;;;;;;5038192;28;20260;-91
2022/03/02 06:07:38;;;;;;;10.50;5.73;;;;;;;;;;5034893;28;20234;-91
2022/03/02 06:10:16;;;;;;;9.07;5.77;;;;;;;;;;5045231;28;20223;-91
2022/03/02 06:12:43;;;;;;;10.23;5.40;;;;;;;;;;5049297;28;20206;-92
2022/03/02 06:15:12;;;;;;;7.57;5.53;;;;;;;;;;5041439;28;20211;-91
2022/03/02 06:17:39;;;;;;;10.87;5.67;;;;;;;;;;5035788;28;20238;-92
2022/03/02 06:20:07;;;;;;;8.53;5.10;;;;;;;;;;5038763;28;20198;-92
2022/03/02 06:22:36;;;;;;;10.00;4.70;;;;;;;;;;5047780;28;20206;-92
2022/03/02 06:25:04;;;;;;;6.87;4.83;;;;;;;;;;5051597;28;20263;-92
2022/03/02 06:27:33;;;;;;;8.20;5.20;;;;;;;;;;5036155;28;20863;-91
2022/03/02 06:30:00;;;;;;;12.00;5.80;;;;;;;;;;5034521;28;20799;-92
2022/03/02 06:32:28;;;;;;;9.70;5.40;;;;;;;;;;5033873;28;20283;-91
2022/03/02 06:34:55;;;;;;;11.60;7.43;;;;;;;;;;5042048;28;21470;-91
2022/03/02 06:37:23;;;;;;;12.37;6.67;;;;;;;;;;5051663;28;20241;-91
2022/03/02 06:39:51;;;;;;;13.10;7.40;;;;;;;;;;5037612;28;20218;-91
2022/03/02 06:42:20;;;;;;;11.70;6.97;;;;;;;;;;5034860;28;20253;-91
2022/03/02 06:44:51;;;;;;;7.33;5.70;;;;;;;;;;5041224;28;20226;-91
2022/03/02 06:47:19;;;;;;;11.03;6.73;;;;;;;;;;5038347;28;20217;-91
2022/03/02 06:49:52;;;;;;;12.17;6.93;;;;;;;;;;5040117;28;20258;-91
2022/03/02 06:52:20;;;;;;;10.47;7.00;;;;;;;;;;5049822;28;20204;-91
2022/03/02 06:54:49;;;;;;;14.60;7.03;;;;;;;;;;5053574;28;20229;-91
2022/03/02 06:57:19;;;;;;;12.83;6.77;;;;;;;;;;5061008;28;20209;-91
2022/03/02 06:59:51;;;;;;;10.23;6.37;;;;;;;;;;5053064;28;20210;-91
2022/03/02 07:02:22;;;;;;;9.00;5.93;;;;;;;;;;5042710;28;20202;-91
2022/03/02 07:04:51;;;;;;;11.00;5.90;;;;;;;;;;5049193;28;20256;-90
2022/03/02 07:07:19;;;;;;;8.97;6.20;;;;;;;;;;5067847;28;20229;-90
2022/03/02 07:09:48;;;;;;;8.60;6.40;;;;;;;;;;5048656;28;21173;-91
2022/03/02 07:12:15;;;;;;;10.77;7.03;;;;;;;;;;5050101;28;20205;-90
2022/03/02 07:14:44;;;;;;;9.50;5.90;;;;;;;;;;5035055;28;20628;-90
2022/03/02 07:17:12;;;;;;;8.50;6.17;;;;;;;;;;5044156;28;20622;-90
2022/03/02 07:19:39;;;;;;;7.57;5.43;;;;;;;;;;5044202;28;20202;-90
2022/03/02 07:22:07;;;;;;;9.97;5.90;;;;;;;;;;5045260;28;20213;-90
2022/03/02 07:24:38;;;;;;;9.27;6.13;;;;;;;;;;5066364;28;20235;-91
2022/03/02 07:27:06;;;;;;;8.70;5.90;;;;;;;;;;5049344;28;20248;-90
2022/03/02 07:29:35;;;;;;;11.03;6.07;;;;;;;;;;5060372;28;20300;-90
2022/03/02 07:32:04;;;;;;;12.00;7.30;;;;;;;;;;5045945;28;20267;-90
2022/03/02 07:34:33;;;;;;;8.43;6.00;;;;;;;;;;5058704;28;20301;-90
2022/03/02 07:37:01;;;;;;;10.90;6.83;;;;;;;;;;5043879;28;20202;-90
2022/03/02 07:39:30;;;;;;;8.73;5.23;;;;;;;;;;5036245;28;20206;-90
2022/03/02 07:44:39;;;;;;;10.43;6.13;;;;;;;;;;5040966;28;20209;-90
2022/03/02 07:47:08;;;;;;;9.60;5.80;;;;;;;;;;5036378;28;20256;-90
2022/03/02 07:49:35;;;;;;;12.30;6.77;;;;;;;;;;5049000;28;20748;-90
2022/03/02 07:52:05;;;;;;;9.40;6.43;;;;;;;;;;5048646;28;20203;-90
2022/03/02 07:54:36;;;;;;;11.20;6.77;;;;;;;;;;5053831;28;20202;-90
2022/03/02 07:57:04;;;;;;;12.80;6.50;;;;;;;;;;5039963;28;20195;-90
2022/03/02 07:59:34;;;;;;;8.70;6.50;;;;;;;;;;5038913;28;20240;-90
2022/03/02 08:02:01;;;;;;;9.57;6.10;;;;;;;;;;5032472;28;20229;-90
2022/03/02 08:04:31;;;;;;;10.27;6.13;;;;;;;;;;5051410;28;20206;-90
2022/03/02 08:06:58;;;;;;;9.10;5.73;;;;;;;;;;5048278;28;20260;-91
2022/03/02 08:09:25;;;;;;;9.17;6.13;;;;;;;;;;5043922;28;20272;-90
2022/03/02 08:11:52;;;;;;;8.83;6.33;;;;;;;;;;5039800;28;20234;-90
2022/03/02 08:14:23;;;;;;;9.17;6.83;;;;;;;;;;5040378;28;20207;-90
2022/03/02 08:16:51;;;;;;;10.57;7.50;;;;;;;;;;5030593;28;20580;-90
2022/03/02 08:19:19;;;;;;;11.20;7.77;;;;;;;;;;5038675;28;20673;-92
2022/03/02 08:21:49;;;;;;;12.23;7.10;;;;;;;;;;5037374;28;20679;-91
2022/03/02 08:24:18;;;;;;;10.43;7.27;;;;;;;;;;5045849;28;20643;-90
2022/03/02 08:26:49;;;;;;;9.13;6.57;;;;;;;;;;5037526;28;20206;-90
2022/03/02 08:29:18;;;;;;;11.43;7.53;;;;;;;;;;5046268;28;20283;-91
2022/03/02 08:31:45;;;;;;;12.30;7.10;;;;;;;;;;5040302;28;20275;-90
2022/03/02 08:34:12;;;;;;;10.33;6.93;;;;;;;;;;5059047;28;20256;-91
2022/03/02 08:36:40;;;;;;;12.07;7.13;;;;;;;;;;5032520;28;20234;-90
2022/03/02 08:39:09;;;;;;;12.47;7.40;;;;;;;;;;5044354;28;20858;-89
2022/03/02 08:41:36;;;;;;;9.20;7.17;;;;;;;;;;5044922;28;20198;-89
2022/03/02 08:44:05;;;;;;;11.23;7.37;;;;;;;;;;5042997;28;20225;-90
2022/03/02 08:46:32;;;;;;;11.87;7.07;;;;;;;;;;5032528;28;20206;-90
2022/03/02 08:48:59;;;;;;;10.60;7.00;;;;;;;;;;5040863;28;20222;-90
2022/03/02 08:51:27;;;;;;;9.97;6.53;;;;;;;;;;5040774;28;20272;-91
2022/03/02 08:53:59;;;;;;;11.27;7.57;;;;;;;;;;5039998;28;20210;-89
2022/03/02 08:58:46;;;;;;;14.93;7.57;;;;;;;;;;5131509;27;20300;-89
2022/03/02 09:01:15;;;;;;;10.27;7.17;;;;;;;;;;5090137;28;20267;-88
2022/03/02 09:03:45;;;;;;;16.23;8.77;;;;;;;;;;5094354;28;20208;-89
2022/03/02 09:06:12;;;;;;;12.70;8.97;;;;;;;;;;5082812;28;20193;-90
2022/03/02 09:08:40;;;;;;;10.70;8.37;;;;;;;;;;5083913;28;20270;-89
2022/03/02 09:11:08;;;;;;;14.83;9.33;;;;;;;;;;5101709;28;20254;-89
2022/03/02 15:15:22;;;;;;;10.03;6.73;;;;;;;;;;5027629;28;20210;-90
2022/03/02 15:17:50;;;;;;;10.90;6.60;;;;;;;;;;5033225;28;20222;-91
2022/03/02 15:20:17;;;;;;;13.10;6.70;;;;;;;;;;5033772;28;20249;-91
2022/03/02 15:22:45;;;;;;;8.20;6.27;;;;;;;;;;5029436;28;20235;-91
2022/03/02 15:25:12;;;;;;;8.43;6.23;;;;;;;;;;5032274;28;20198;-90
2022/03/02 15:27:40;;;;;;;9.23;6.57;;;;;;;;;;5044809;28;20560;-91
2022/03/02 15:30:14;;;;;;;10.70;6.37;;;;;;;;;;5031824;28;20206;-90
2022/03/02 15:32:43;;;;;;;11.20;7.23;;;;;;;;;;5026062;28;20231;-91
2022/03/02 15:35:11;;;;;;;9.57;6.53;;;;;;;;;;5033063;28;20244;-91
2022/03/02 15:37:46;;;;;;;9.90;6.83;;;;;;;;;;5031868;28;20589;-90
2022/03/02 15:40:15;;;;;;;13.40;8.43;;;;;;;;;;5026403;28;20599;-91
2022/03/02 15:42:45;;;;;;;14.07;7.80;;;;;;;;;;5030107;28;20258;-91
2022/03/02 15:45:14;;;;;;;144.80;57.47;;;;;;;;;;5031565;28;20260;-91
2022/03/02 15:47:47;;;;;;;24.33;14.07;;;;;;;;;;5029345;28;20229;-91
2022/03/02 15:50:16;;;;;;;16.60;9.70;;;;;;;;;;5032621;28;20644;-91
2022/03/02 15:52:44;;;;;;;12.40;8.67;;;;;;;;;;5029153;28;20559;-91
2022/03/02 15:55:14;;;;;;;13.33;7.63;;;;;;;;;;5016270;28;20260;-92
2022/03/02 15:57:51;;;;;;;10.87;7.20;;;;;;;;;;5030900;28;20218;-92
2022/03/02 16:00:19;;;;;;;11.67;7.13;;;;;;;;;;5036117;28;20587;-91
2022/03/02 16:02:51;;;;;;;12.73;7.43;;;;;;;;;;5043284;28;20218;-91
2022/03/02 16:05:26;;;;;;;10.77;7.30;;;;;;;;;;5025100;28;20253;-91
2022/03/02 16:07:58;;;;;;;11.83;6.93;;;;;;;;;;5031772;28;20272;-91
2022/03/02 16:10:25;;;;;;;10.67;6.33;;;;;;;;;;5026676;28;20207;-91
2022/03/02 16:12:53;;;;;;;10.47;6.50;;;;;;;;;;5031724;28;20559;-91
2022/03/02 16:15:22;;;;;;;9.03;6.47;;;;;;;;;;5032680;28;20214;-91
2022/03/02 16:17:52;;;;;;;8.60;6.33;;;;;;;;;;5024755;28;20597;-91
2022/03/02 16:20:21;;;;;;;10.40;6.57;;;;;;;;;;5032082;28;20207;-92
2022/03/02 16:22:48;;;;;;;10.83;6.83;;;;;;;;;;5029929;28;20230;-91
2022/03/02 16:25:20;;;;;;;8.93;6.97;;;;;;;;;;5028350;28;20254;-91
2022/03/02 16:27:56;;;;;;;9.73;7.27;;;;;;;;;;5031024;28;20598;-91
2022/03/02 16:30:26;;;;;;;10.13;7.03;;;;;;;;;;5029901;28;20206;-91
2022/03/02 16:32:55;;;;;;;11.90;6.90;;;;;;;;;;5029872;28;20231;-91
2022/03/02 16:35:23;;;;;;;9.50;6.43;;;;;;;;;;5032961;28;20214;-91
2022/03/02 16:37:52;;;;;;;9.33;6.23;;;;;;;;;;5048295;28;20228;-92
2022/03/02 16:40:19;;;;;;;11.30;7.10;;;;;;;;;;5032174;28;20210;-91
2022/03/02 16:42:48;;;;;;;10.43;7.50;;;;;;;;;;5026685;28;20265;-91
2022/03/02 16:45:17;;;;;;;12.60;8.87;;;;;;;;;;5031563;28;20203;-91
2022/03/02 16:47:45;;;;;;;14.33;9.27;;;;;;;;;;5036228;28;20212;-91
2022/03/02 16:50:14;;;;;;;11.53;8.37;;;;;;;;;;5034711;28;20257;-91
2022/03/02 16:52:42;;;;;;;13.77;8.60;;;;;;;;;;5020377;28;20597;-91
2022/03/02 16:55:10;;;;;;;13.57;8.97;;;;;;;;;;5028979;28;20203;-91
2022/03/02 16:57:39;;;;;;;13.60;9.07;;;;;;;;;;5022743;28;20732;-91
2022/03/02 17:00:09;;;;;;;12.07;8.20;;;;;;;;;;5016971;28;20262;-91
2022/03/02 17:02:37;;;;;;;10.67;8.23;;;;;;;;;;5027732;28;20257;-91
2022/03/02 17:05:05;;;;;;;12.27;8.53;;;;;;;;;;5032027;28;20700;-91
2022/03/02 17:07:33;;;;;;;18.63;10.53;;;;;;;;;;5027128;28;20211;-91
2022/03/02 17:10:03;;;;;;;12.80;8.20;;;;;;;;;;5023188;28;20256;-91
2022/03/02 17:12:38;;;;;;;15.30;8.37;;;;;;;;;;5033896;28;20581;-91
2022/03/02 17:15:09;;;;;;;11.07;7.33;;;;;;;;;;5031835;28;20263;-92
2022/03/02 17:20:20;;;;;;;10.93;8.23;;;;;;;;;;5029791;28;20214;-92
2022/03/02 17:22:50;;;;;;;11.57;7.90;;;;;;;;;;5048419;28;20221;-91
2022/03/02 17:25:17;;;;;;;14.90;8.73;;;;;;;;;;5034189;28;20210;-91
2022/03/02 17:27:45;;;;;;;14.67;8.27;;;;;;;;;;5029233;28;20616;-91
2022/03/02 17:30:13;;;;;;;21.07;9.30;;;;;;;;;;5033348;28;20253;-91
2022/03/02 17:32:41;;;;;;;15.73;9.30;;;;;;;;;;5028459;28;20227;-91
2022/03/02 17:35:09;;;;;;;16.53;10.37;;;;;;;;;;5035695;28;20206;-91
2022/03/02 17:37:36;;;;;;;16.70;11.70;;;;;;;;;;5035921;28;20272;-91
2022/03/02 17:40:07;;;;;;;12.73;8.33;;;;;;;;;;5037780;28;20353;-91
2022/03/02 17:42:35;;;;;;;11.53;8.47;;;;;;;;;;5038712;28;20234;-91
2022/03/02 17:45:02;;;;;;;13.33;8.87;;;;;;;;;;5039085;28;20206;-91
2022/03/02 17:47:30;;;;;;;13.90;9.77;;;;;;;;;;5043879;28;20411;-91
2022/03/02 17:49:57;;;;;;;18.40;11.07;;;;;;;;;;5030708;28;20427;-91
2022/03/02 17:52:25;;;;;;;14.20;10.30;;;;;;;;;;5038778;28;20764;-91
2022/03/02 17:54:52;;;;;;;13.67;8.73;;;;;;;;;;5036154;28;20198;-91
2022/03/02 17:57:24;;;;;;;12.03;8.93;;;;;;;;;;5030546;28;20211;-91
2022/03/02 17:59:51;;;;;;;11.13;8.00;;;;;;;;;;5032924;28;20276;-91
2022/03/02 18:02:18;;;;;;;11.93;7.47;;;;;;;;;;5035006;28;20203;-91
2022/03/02 18:04:46;;;;;;;11.67;7.97;;;;;;;;;;5032024;28;20214;-91
2022/03/02 18:07:13;;;;;;;15.30;8.93;;;;;;;;;;5032158;28;20211;-91
2022/03/02 18:09:40;;;;;;;12.37;7.67;;;;;;;;;;5034847;28;20203;-91
2022/03/02 18:12:08;;;;;;;15.07;9.13;;;;;;;;;;5026862;28;20268;-91
2022/03/02 18:14:37;;;;;;;11.80;8.27;;;;;;;;;;5031106;28;20207;-91
2022/03/02 18:17:05;;;;;;;18.77;9.33;;;;;;;;;;5026746;28;20233;-91
2022/03/02 18:19:32;;;;;;;13.90;8.63;;;;;;;;;;5034832;28;20242;-91
2022/03/02 18:22:01;;;;;;;14.07;8.30;;;;;;;;;;5035014;28;20209;-91
2022/03/02 18:24:28;;;;;;;11.47;8.03;;;;;;;;;;5028234;28;20702;-91
2022/03/02 18:27:03;;;;;;;12.43;8.63;;;;;;;;;;5039319;28;20211;-91
2022/03/02 18:29:31;;;;;;;14.30;8.60;;;;;;;;;;5039291;28;20190;-91
2022/03/02 18:34:47;;;;;;;13.93;8.07;;;;;;;;;;5027201;28;20294;-91
2022/03/02 18:37:16;;;;;;;15.23;8.70;;;;;;;;;;5036955;28;21669;-91
2022/03/02 18:39:44;;;;;;;14.20;8.40;;;;;;;;;;5031515;28;20226;-91
2022/03/02 18:42:11;;;;;;;12.50;8.30;;;;;;;;;;5030746;28;20203;-91
2022/03/02 18:44:43;;;;;;;13.87;8.63;;;;;;;;;;5033588;28;20258;-91
2022/03/02 18:47:13;;;;;;;12.70;9.17;;;;;;;;;;5034211;28;20202;-91
2022/03/02 18:49:41;;;;;;;11.67;8.23;;;;;;;;;;5030766;28;20214;-91
2022/03/02 18:52:08;;;;;;;13.63;8.63;;;;;;;;;;5026005;28;20276;-91
2022/03/02 18:54:37;;;;;;;13.33;8.67;;;;;;;;;;5024778;28;20291;-91
2022/03/02 18:57:05;;;;;;;14.47;8.73;;;;;;;;;;5033914;28;20638;-91
2022/03/02 18:59:32;;;;;;;12.73;8.87;;;;;;;;;;5034647;28;20219;-91
2022/03/02 19:02:00;;;;;;;13.60;8.80;;;;;;;;;;5029668;28;20261;-91
2022/03/02 19:04:28;;;;;;;15.20;8.83;;;;;;;;;;5033768;28;20305;-91
2022/03/02 19:06:57;;;;;;;12.47;8.53;;;;;;;;;;5036721;28;20203;-91
2022/03/02 19:09:26;;;;;;;12.87;9.17;;;;;;;;;;5030237;28;20202;-91
2022/03/02 19:11:57;;;;;;;14.37;9.17;;;;;;;;;;5027122;28;20215;-91
2022/03/02 19:14:24;;;;;;;17.87;10.07;;;;;;;;;;5028270;28;20313;-91
2022/03/02 19:16:52;;;;;;;15.13;8.90;;;;;;;;;;5050364;28;20267;-91
2022/03/02 19:19:21;;;;;;;15.10;9.67;;;;;;;;;;5037788;28;20226;-91
2022/03/02 19:21:50;;;;;;;19.97;11.27;;;;;;;;;;5028357;28;20211;-91
2022/03/02 19:24:18;;;;;;;14.07;9.90;;;;;;;;;;5033122;28;20226;-92
2022/03/02 19:26:46;;;;;;;16.63;11.37;;;;;;;;;;5032078;28;20253;-91
2022/03/02 19:29:13;;;;;;;19.03;10.87;;;;;;;;;;5028635;28;20287;-91
2022/03/02 19:31:41;;;;;;;16.27;10.13;;;;;;;;;;5027305;28;20214;-91
2022/03/02 19:34:09;;;;;;;13.73;9.53;;;;;;;;;;5033209;28;20230;-92
2022/03/02 19:36:38;;;;;;;12.53;9.53;;;;;;;;;;5031232;28;20210;-91
2022/03/02 19:41:52;;;;;;;17.83;11.33;;;;;;;;;;5032382;28;20206;-92
2022/03/02 19:44:20;;;;;;;16.30;10.43;;;;;;;;;;5031370;28;20238;-90
2022/03/02 19:46:48;;;;;;;16.90;11.10;;;;;;;;;;5024919;28;20203;-91
2022/03/02 19:49:16;;;;;;;16.27;9.30;;;;;;;;;;5032904;28;20218;-92
2022/03/02 19:51:43;;;;;;;13.13;9.30;;;;;;;;;;5033372;28;20507;-92
2022/03/02 19:54:12;;;;;;;17.23;9.77;;;;;;;;;;5028600;28;20234;-91
2022/03/02 19:56:39;;;;;;;15.70;9.10;;;;;;;;;;5028900;28;20211;-91
2022/03/02 19:59:09;;;;;;;15.37;9.97;;;;;;;;;;5032991;28;20223;-92
2022/03/02 20:01:37;;;;;;;15.87;10.37;;;;;;;;;;5033129;28;20268;-91
2022/03/02 20:04:11;;;;;;;15.37;9.83;;;;;;;;;;5024526;28;20230;-91
2022/03/02 20:06:39;;;;;;;17.93;10.90;;;;;;;;;;5031141;28;20265;-91
2022/03/02 20:09:09;;;;;;;20.23;11.50;;;;;;;;;;5032857;28;20203;-92
2022/03/02 20:11:45;;;;;;;12.20;9.07;;;;;;;;;;5032947;28;20202;-92
2022/03/02 20:14:13;;;;;;;14.20;9.47;;;;;;;;;;5027154;28;20233;-92
2022/03/02 20:16:44;;;;;;;17.57;10.63;;;;;;;;;;5029363;28;20210;-91
2022/03/02 20:19:12;;;;;;;15.60;9.93;;;;;;;;;;5026131;28;20277;-91
2022/03/02 20:21:41;;;;;;;13.70;9.57;;;;;;;;;;5026373;28;20219;-91
2022/03/02 20:24:08;;;;;;;14.30;9.30;;;;;;;;;;5027455;28;20219;-91
2022/03/02 20:26:36;;;;;;;15.60;9.53;;;;;;;;;;5032103;28;20210;-92
2022/03/02 20:29:05;;;;;;;15.23;9.00;;;;;;;;;;5027722;28;20651;-91
2022/03/02 20:31:33;;;;;;;13.73;8.50;;;;;;;;;;5022492;28;20202;-91
2022/03/02 20:34:01;;;;;;;11.50;8.47;;;;;;;;;;5025682;28;20227;-92
2022/03/02 20:36:28;;;;;;;16.20;9.40;;;;;;;;;;5032055;28;20535;-92
2022/03/02 20:38:56;;;;;;;14.37;9.07;;;;;;;;;;5029898;28;20226;-92
2022/03/02 20:41:23;;;;;;;13.87;9.17;;;;;;;;;;5030597;28;20260;-91
2022/03/02 20:43:51;;;;;;;11.83;8.57;;;;;;;;;;5033436;28;20309;-91
2022/03/02 20:46:20;;;;;;;13.30;9.10;;;;;;;;;;5034366;28;20206;-92
2022/03/02 20:48:47;;;;;;;13.60;9.07;;;;;;;;;;5026407;28;20214;-91
2022/03/02 20:51:14;;;;;;;13.90;8.93;;;;;;;;;;5023434;28;20226;-91
2022/03/02 20:53:41;;;;;;;18.10;9.00;;;;;;;;;;5045169;28;20277;-92
2022/03/02 20:56:09;;;;;;;15.57;9.23;;;;;;;;;;5012746;28;20204;-92